Time;durP1;ratioP1;P1;durP2;ratioP2;P2;SDS_P1;SDS_P2;PMS_P1;PMS_P2;Temp;Humidity;BMP_temperature;BMP_pressure;BME280_temperature;BME280_humidity;BME280_pressure;Samples;Min_cycle;Max_cycle;Signal;HPM_P1;HPM_P2
2021/09/09 00:00:37;;;;;;;1.10;1.00;;;;;;;14.07;90.36;100976.28;4949766;29;20050;-79
2021/09/09 00:03:10;;;;;;;1.00;0.90;;;;;;;14.04;90.39;100973.31;4948998;29;20058;-79
2021/09/09 00:05:44;;;;;;;1.10;1.00;;;;;;;14.04;90.52;100967.81;4956299;29;20480;-79
2021/09/09 00:08:18;;;;;;;1.15;1.05;;;;;;;13.99;91.26;100965.16;4952670;29;20043;-79
2021/09/09 00:10:52;;;;;;;0.90;0.90;;;;;;;13.96;91.64;100963.81;4950330;29;20514;-80
2021/09/09 00:13:26;;;;;;;0.90;0.90;;;;;;;13.95;91.53;100957.56;4947417;28;20055;-80
2021/09/09 00:15:55;;;;;;;2.00;1.20;;;;;;;14.00;90.65;100956.66;4940352;29;20393;-78
2021/09/09 00:18:28;;;;;;;1.00;0.90;;;;;;;13.98;91.35;100952.59;4936863;29;20055;-79
2021/09/09 00:20:59;;;;;;;1.77;1.10;;;;;;;13.96;91.58;100961.09;4936638;29;20051;-81
2021/09/09 00:23:32;;;;;;;1.45;1.20;;;;;;;13.97;91.57;100959.19;4936685;29;20044;-78
2021/09/09 00:26:07;;;;;;;1.20;1.10;;;;;;;13.94;91.42;100955.09;4955725;29;20051;-79
2021/09/09 00:28:41;;;;;;;1.20;1.10;;;;;;;13.88;91.85;100959.84;4942191;29;20401;-78
2021/09/09 00:31:17;;;;;;;1.10;1.00;;;;;;;13.84;92.06;100950.59;4947208;29;20397;-81
2021/09/09 00:33:50;;;;;;;1.15;1.05;;;;;;;13.86;91.68;100939.34;4935600;29;20052;-80
2021/09/09 00:36:19;;;;;;;1.05;0.98;;;;;;;13.80;92.38;100938.63;4941091;29;20072;-78
2021/09/09 00:38:52;;;;;;;3.60;1.10;;;;;;;13.80;91.71;100935.88;4954944;29;20058;-79
2021/09/09 00:41:29;;;;;;;1.40;1.15;;;;;;;13.79;91.87;100945.19;4953874;29;20415;-80
2021/09/09 00:43:57;;;;;;;1.20;1.10;;;;;;;13.76;91.61;100941.13;4946309;29;20060;-79
2021/09/09 00:46:32;;;;;;;1.25;1.15;;;;;;;13.80;92.02;100941.34;4948227;29;20074;-79
2021/09/09 00:49:05;;;;;;;1.20;1.10;;;;;;;13.74;92.16;100934.31;4935251;29;20052;-79
2021/09/09 00:51:38;;;;;;;1.45;1.15;;;;;;;13.76;92.23;100938.38;4941617;29;20066;-79
2021/09/09 00:54:11;;;;;;;1.30;1.20;;;;;;;13.81;92.30;100942.16;4955167;29;20058;-79
2021/09/09 00:56:44;;;;;;;1.20;1.10;;;;;;;13.83;92.08;100939.97;4954223;28;20050;-78
2021/09/09 00:59:18;;;;;;;1.50;1.17;;;;;;;13.80;92.51;100937.81;4970016;28;20504;-80
2021/09/09 01:01:53;;;;;;;1.20;1.10;;;;;;;13.86;91.60;100940.16;4953789;28;20062;-79
2021/09/09 01:04:26;;;;;;;1.42;1.20;;;;;;;13.79;91.79;100926.03;4950752;29;20051;-80
2021/09/09 01:07:00;;;;;;;1.30;1.20;;;;;;;13.78;92.04;100930.72;4951405;29;20067;-78
2021/09/09 01:09:34;;;;;;;1.30;1.20;;;;;;;13.83;92.01;100935.28;4948362;29;20043;-79
2021/09/09 01:12:02;;;;;;;1.60;1.25;;;;;;;13.84;92.32;100931.44;4943562;29;20059;-79
2021/09/09 01:14:35;;;;;;;1.30;1.20;;;;;;;13.84;91.58;100927.91;4953641;29;20051;-78
2021/09/09 01:17:10;;;;;;;1.90;1.30;;;;;;;13.86;91.49;100933.88;4955002;29;20514;-79
2021/09/09 01:19:43;;;;;;;1.20;1.10;;;;;;;13.87;91.91;100927.31;4953868;29;20162;-80
2021/09/09 01:22:16;;;;;;;1.95;1.40;;;;;;;13.86;91.99;100925.69;4954543;29;20047;-79
2021/09/09 01:24:51;;;;;;;1.17;1.00;;;;;;;13.82;92.15;100924.66;4952460;28;20058;-80
2021/09/09 01:27:24;;;;;;;1.85;1.30;;;;;;;13.79;91.77;100917.84;4953760;28;20051;-80
2021/09/09 01:29:53;;;;;;;1.50;1.10;;;;;;;13.72;92.14;100926.41;4953781;28;20063;-79
2021/09/09 01:32:27;;;;;;;2.08;1.30;;;;;;;13.68;92.21;100911.69;4950678;28;20043;-79
2021/09/09 01:35:00;;;;;;;1.73;1.23;;;;;;;13.68;92.50;100922.63;4951152;29;20039;-79
2021/09/09 01:37:34;;;;;;;1.00;1.00;;;;;;;13.67;92.98;100917.47;4954684;29;20058;-79
2021/09/09 01:40:10;;;;;;;1.20;1.10;;;;;;;13.63;93.46;100925.47;4954238;29;20047;-79
2021/09/09 01:42:43;;;;;;;1.48;1.38;;;;;;;13.61;93.38;100917.53;4963470;28;20043;-78
2021/09/09 01:45:11;;;;;;;1.25;1.15;;;;;;;13.61;93.60;100922.19;4946549;29;20361;-79
2021/09/09 01:47:44;;;;;;;1.40;1.30;;;;;;;13.60;93.13;100915.94;4954868;29;20055;-79
2021/09/09 01:50:12;;;;;;;1.30;1.20;;;;;;;13.61;93.36;100920.25;4953646;28;20534;-79
2021/09/09 01:52:41;;;;;;;1.38;1.25;;;;;;;13.58;93.53;100918.13;4953436;28;20058;-79
2021/09/09 01:55:15;;;;;;;1.30;1.20;;;;;;;13.49;93.00;100905.41;4952741;29;20055;-79
2021/09/09 01:57:48;;;;;;;1.30;1.20;;;;;;;13.52;93.54;100913.00;4936631;28;20058;-79
2021/09/09 02:00:22;;;;;;;1.65;1.30;;;;;;;13.51;93.58;100914.94;4948960;29;20047;-79
2021/09/09 02:02:55;;;;;;;1.40;1.23;;;;;;;13.46;94.05;100914.19;4951334;29;20046;-80
2021/09/09 02:05:28;;;;;;;1.55;1.30;;;;;;;13.43;94.17;100907.41;4953051;29;20488;-78
2021/09/09 02:07:58;;;;;;;1.63;1.33;;;;;;;13.41;93.58;100907.69;4946826;29;20048;-78
2021/09/09 02:10:33;;;;;;;1.80;1.30;;;;;;;13.40;93.94;100908.00;4944967;29;20420;-80
2021/09/09 02:13:06;;;;;;;1.38;1.20;;;;;;;13.36;94.11;100910.47;4952806;28;20511;-79
2021/09/09 02:15:34;;;;;;;1.25;1.15;;;;;;;13.35;94.06;100906.13;4940984;29;20058;-79
2021/09/09 02:18:08;;;;;;;1.40;1.30;;;;;;;13.34;93.89;100912.69;4954515;29;20058;-79
2021/09/09 02:20:41;;;;;;;1.52;1.25;;;;;;;13.32;93.77;100909.41;4953143;29;20051;-79
2021/09/09 02:23:14;;;;;;;3.00;1.40;;;;;;;13.31;93.67;100905.03;4952187;29;20054;-79
2021/09/09 02:25:44;;;;;;;1.40;1.30;;;;;;;13.28;93.95;100905.63;4953144;28;20058;-79
2021/09/09 02:28:18;;;;;;;2.58;1.30;;;;;;;13.25;93.44;100908.97;4954272;29;20050;-79
2021/09/09 02:30:51;;;;;;;1.40;1.30;;;;;;;13.19;94.67;100912.88;4950489;29;20059;-79
2021/09/09 02:33:24;;;;;;;1.27;1.17;;;;;;;13.15;94.57;100907.16;4952609;29;20051;-79
2021/09/09 02:35:52;;;;;;;1.25;1.15;;;;;;;13.13;95.30;100909.38;4954890;28;20051;-79
2021/09/09 02:38:26;;;;;;;1.80;1.40;;;;;;;13.12;95.45;100902.28;4972636;28;20055;-80
2021/09/09 02:41:00;;;;;;;1.55;1.30;;;;;;;13.09;95.45;100892.75;4965584;28;20047;-78
2021/09/09 02:43:33;;;;;;;1.30;1.20;;;;;;;13.08;95.43;100890.31;4970012;28;20051;-79
2021/09/09 02:46:06;;;;;;;1.35;1.20;;;;;;;13.06;95.81;100896.06;4948431;29;20059;-79
2021/09/09 02:48:40;;;;;;;1.30;1.20;;;;;;;13.06;96.00;100892.50;4956717;28;20055;-79
2021/09/09 02:52:03;;;;;;;1.48;1.38;;;;;;;13.05;95.37;100880.78;4956017;29;20039;-79
2021/09/09 02:54:32;;;;;;;1.20;1.10;;;;;;;13.00;95.41;100877.31;4951352;29;20047;-79
2021/09/09 02:57:07;;;;;;;1.85;1.20;;;;;;;13.00;95.55;100883.56;4944665;29;20647;-79
2021/09/09 02:59:40;;;;;;;2.85;1.40;;;;;;;12.99;95.31;100881.13;4956040;29;20047;-80
2021/09/09 03:02:13;;;;;;;1.40;1.30;;;;;;;12.98;95.49;100874.03;4941777;29;20058;-79
2021/09/09 03:04:46;;;;;;;1.55;1.35;;;;;;;12.93;95.49;100870.25;4941780;29;20484;-79
2021/09/09 03:07:20;;;;;;;1.70;1.30;;;;;;;12.92;96.10;100860.41;4938113;29;20047;-78
2021/09/09 03:09:48;;;;;;;1.65;1.40;;;;;;;12.95;96.17;100863.69;4947705;29;20049;-79
2021/09/09 03:12:22;;;;;;;1.40;1.30;;;;;;;12.84;96.11;100847.44;4951280;29;20516;-79
2021/09/09 03:14:55;;;;;;;1.30;1.20;;;;;;;12.87;96.46;100862.41;4968655;28;20062;-79
2021/09/09 03:17:29;;;;;;;1.30;1.20;;;;;;;12.82;96.65;100846.91;4953239;29;20043;-79
2021/09/09 03:20:02;;;;;;;1.73;1.40;;;;;;;12.75;96.74;100839.06;4961844;28;20500;-80
2021/09/09 03:22:30;;;;;;;1.40;1.30;;;;;;;12.77;96.92;100846.94;4953527;28;20073;-79
2021/09/09 03:24:58;;;;;;;1.40;1.30;;;;;;;12.78;96.88;100853.25;4956962;29;20058;-79
2021/09/09 03:27:28;;;;;;;1.40;1.17;;;;;;;12.78;97.10;100843.13;4967380;28;20043;-80
2021/09/09 03:30:01;;;;;;;1.70;1.30;;;;;;;12.73;96.77;100849.47;4965162;28;20073;-80
2021/09/09 03:32:34;;;;;;;1.40;1.30;;;;;;;12.72;96.54;100844.31;4954846;28;20055;-80
2021/09/09 03:35:08;;;;;;;1.30;1.20;;;;;;;12.69;97.05;100844.84;4952238;28;20697;-80
2021/09/09 03:37:41;;;;;;;2.85;1.38;;;;;;;12.65;97.34;100841.06;4952889;29;20380;-79
2021/09/09 03:40:15;;;;;;;2.50;1.60;;;;;;;12.60;97.65;100839.22;4949660;29;20063;-79
2021/09/09 03:42:50;;;;;;;1.55;1.30;;;;;;;12.58;98.05;100825.88;4949792;29;20063;-80
2021/09/09 03:45:23;;;;;;;1.42;1.30;;;;;;;12.55;97.64;100831.91;4953075;28;20043;-79
2021/09/09 03:47:56;;;;;;;1.52;1.40;;;;;;;12.44;97.61;100819.44;4940830;29;20509;-80
2021/09/09 03:50:57;;;;;;;1.60;1.50;;;;;;;12.50;97.83;100829.22;4936576;29;20060;-79
2021/09/09 03:53:30;;;;;;;1.90;1.50;;;;;;;12.45;98.07;100825.75;4935447;29;20055;-80
2021/09/09 03:56:04;;;;;;;1.58;1.20;;;;;;;12.46;98.19;100832.84;4949851;29;20480;-79
2021/09/09 03:58:38;;;;;;;1.88;1.40;;;;;;;12.47;98.76;100826.25;4954872;29;20059;-81
2021/09/09 04:01:11;;;;;;;1.70;1.55;;;;;;;12.44;98.96;100814.00;4953910;29;20047;-81
2021/09/09 04:03:40;;;;;;;1.58;1.48;;;;;;;12.44;98.79;100819.44;4944889;29;20500;-81
2021/09/09 04:06:13;;;;;;;2.08;1.50;;;;;;;12.32;99.35;100799.94;4956108;29;20062;-79
2021/09/09 04:08:46;;;;;;;1.83;1.42;;;;;;;12.40;99.08;100804.75;4955970;29;20063;-80
2021/09/09 04:11:19;;;;;;;1.80;1.48;;;;;;;12.44;99.26;100816.72;4955308;29;20043;-79
2021/09/09 04:13:54;;;;;;;2.17;1.60;;;;;;;12.44;99.09;100815.91;4945108;29;20044;-79
2021/09/09 04:16:27;;;;;;;1.92;1.40;;;;;;;12.41;99.21;100806.38;4944707;28;20863;-79
2021/09/09 04:19:00;;;;;;;2.42;1.85;;;;;;;12.41;99.77;100815.41;4955953;29;20051;-80
2021/09/09 04:21:33;;;;;;;1.83;1.40;;;;;;;12.40;98.84;100810.22;4970500;28;20059;-80
2021/09/09 04:24:07;;;;;;;1.80;1.50;;;;;;;12.40;98.45;100810.22;4955743;29;20051;-79
2021/09/09 04:26:40;;;;;;;3.22;1.45;;;;;;;12.39;98.25;100803.16;4970345;28;20051;-80
2021/09/09 04:29:14;;;;;;;1.85;1.50;;;;;;;12.39;98.54;100800.41;4962486;28;20066;-80
2021/09/09 04:31:47;;;;;;;1.60;1.50;;;;;;;12.37;98.09;100803.44;4950052;29;20055;-80
2021/09/09 04:34:16;;;;;;;4.25;1.50;;;;;;;12.32;98.38;100800.75;4955784;29;20043;-80
2021/09/09 04:36:49;;;;;;;2.60;1.70;;;;;;;12.24;98.81;100793.19;4955752;29;20051;-79
2021/09/09 04:39:17;;;;;;;2.08;1.48;;;;;;;12.22;98.99;100787.19;4954113;29;20039;-80
2021/09/09 04:41:51;;;;;;;1.73;1.40;;;;;;;12.27;98.39;100792.63;4953843;29;20055;-79
2021/09/09 04:44:42;;;;;;;1.60;1.50;;;;;;;12.27;98.79;100798.06;4952616;28;20404;-80
2021/09/09 04:47:15;;;;;;;2.35;1.60;;;;;;;12.24;99.06;100794.00;4943433;29;20070;-79
2021/09/09 04:49:49;;;;;;;1.85;1.50;;;;;;;12.19;99.92;100787.78;4954206;28;20110;-81
2021/09/09 04:52:22;;;;;;;1.70;1.40;;;;;;;12.18;99.34;100778.81;4968632;28;20054;-81
2021/09/09 04:54:55;;;;;;;1.80;1.50;;;;;;;12.23;99.28;100791.56;4969951;28;20628;-80
2021/09/09 04:57:28;;;;;;;1.63;1.52;;;;;;;12.21;99.00;100785.59;4962446;28;20062;-80
2021/09/09 05:00:03;;;;;;;1.60;1.50;;;;;;;12.21;98.81;100780.16;4944023;29;20047;-79
2021/09/09 05:02:37;;;;;;;2.33;1.65;;;;;;;12.16;98.99;100772.00;4951210;29;20059;-80
2021/09/09 05:05:06;;;;;;;1.50;1.40;;;;;;;12.18;99.68;100780.69;4969525;28;20070;-80
2021/09/09 05:07:39;;;;;;;2.10;1.48;;;;;;;12.21;100.00;100780.94;4955263;29;20403;-80
2021/09/09 05:10:13;;;;;;;1.77;1.50;;;;;;;12.06;100.00;100751.09;4956716;28;20051;-80
2021/09/09 05:12:46;;;;;;;3.55;1.50;;;;;;;12.18;100.00;100767.06;4951907;29;20074;-79
2021/09/09 05:15:15;;;;;;;2.20;1.77;;;;;;;12.25;100.00;100776.53;4965872;28;20066;-79
2021/09/09 05:17:48;;;;;;;3.15;1.80;;;;;;;12.31;100.00;100769.09;4955303;29;20054;-80
2021/09/09 05:20:22;;;;;;;1.60;1.50;;;;;;;12.32;100.00;100769.91;4969738;28;20058;-80
2021/09/09 05:22:50;;;;;;;2.60;1.70;;;;;;;12.40;100.00;100769.28;4969211;28;20492;-80
2021/09/09 05:25:23;;;;;;;1.70;1.60;;;;;;;12.43;100.00;100771.44;4953438;29;20051;-79
2021/09/09 05:27:51;;;;;;;1.67;1.58;;;;;;;12.51;100.00;100772.72;4953210;29;20059;-79
2021/09/09 05:30:21;;;;;;;1.60;1.48;;;;;;;12.54;100.00;100763.94;4963802;28;20066;-79
2021/09/09 05:32:54;;;;;;;1.52;1.42;;;;;;;12.60;100.00;100760.06;4954182;29;20051;-80
2021/09/09 05:35:27;;;;;;;2.58;1.70;;;;;;;12.64;100.00;100761.09;4953492;29;20436;-80
2021/09/09 05:38:06;;;;;;;1.88;1.52;;;;;;;12.69;100.00;100763.78;4944647;29;20062;-80
2021/09/09 05:40:40;;;;;;;1.67;1.52;;;;;;;12.78;100.00;100763.94;4966161;28;20047;-80
2021/09/09 05:43:08;;;;;;;1.77;1.67;;;;;;;12.79;100.00;100762.84;4933917;29;20397;-79
2021/09/09 05:45:42;;;;;;;1.50;1.40;;;;;;;12.91;99.89;100760.47;4962533;28;20047;-81
2021/09/09 05:48:15;;;;;;;1.60;1.50;;;;;;;12.92;99.99;100753.91;4969003;28;20052;-79
2021/09/09 05:50:44;;;;;;;1.65;1.55;;;;;;;12.95;99.72;100757.16;4954107;29;20078;-79
2021/09/09 05:53:12;;;;;;;1.70;1.50;;;;;;;13.05;99.25;100755.09;4954047;29;20058;-79
2021/09/09 05:55:45;;;;;;;2.13;1.40;;;;;;;13.13;99.18;100759.06;4950259;28;20052;-79
2021/09/09 05:58:18;;;;;;;1.70;1.60;;;;;;;13.16;99.47;100760.41;4950955;29;20061;-78
2021/09/09 06:00:53;;;;;;;1.92;1.60;;;;;;;13.24;99.24;100757.00;4959746;28;20059;-79
2021/09/09 06:03:29;;;;;;;1.50;1.40;;;;;;;13.34;98.33;100759.63;4953917;29;20043;-80
2021/09/09 06:06:04;;;;;;;1.98;1.60;;;;;;;13.38;98.10;100748.91;4953966;29;20150;-80
2021/09/09 06:08:37;;;;;;;1.65;1.40;;;;;;;13.46;97.75;100755.63;4952573;29;20709;-80
2021/09/09 06:11:11;;;;;;;2.85;1.50;;;;;;;13.68;97.56;100749.53;4950378;28;20051;-83
2021/09/09 06:13:44;;;;;;;2.13;1.55;;;;;;;13.77;96.30;100751.28;4955114;29;20407;-79
2021/09/09 06:16:18;;;;;;;1.63;1.42;;;;;;;13.84;96.28;100752.84;4952483;29;20412;-79
2021/09/09 06:18:52;;;;;;;1.67;1.40;;;;;;;13.92;96.57;100749.38;4955903;28;20062;-81
2021/09/09 06:21:20;;;;;;;2.08;1.60;;;;;;;13.82;97.21;100744.09;4954354;28;20062;-81
2021/09/09 06:23:53;;;;;;;2.25;1.42;;;;;;;13.80;97.71;100754.56;4955112;29;20054;-79
2021/09/09 06:26:26;;;;;;;2.60;1.35;;;;;;;13.86;97.32;100756.06;4957282;29;20385;-80
2021/09/09 06:29:03;;;;;;;1.40;1.30;;;;;;;13.88;96.99;100749.19;4953733;28;20070;-79
2021/09/09 06:31:37;;;;;;;1.55;1.45;;;;;;;13.82;97.25;100728.50;4952925;29;20055;-79
2021/09/09 06:34:11;;;;;;;1.48;1.38;;;;;;;14.04;97.00;100752.44;4938322;29;20058;-80
2021/09/09 06:36:39;;;;;;;1.60;1.25;;;;;;;13.99;97.06;100732.59;4943271;29;20392;-80
2021/09/09 06:39:13;;;;;;;1.40;1.30;;;;;;;14.12;97.04;100746.28;4951558;29;20056;-79
2021/09/09 06:42:08;;;;;;;1.90;1.20;;;;;;;14.23;96.87;100748.84;4955699;29;20043;-79
2021/09/09 06:44:42;;;;;;;1.60;1.50;;;;;;;14.32;96.43;100741.56;4953434;28;20054;-79
2021/09/09 06:47:16;;;;;;;1.67;1.50;;;;;;;14.33;96.79;100745.91;4952459;28;20052;-81
2021/09/09 06:49:49;;;;;;;1.40;1.30;;;;;;;14.46;97.30;100733.34;4964890;28;20055;-79
2021/09/09 06:52:17;;;;;;;1.77;1.50;;;;;;;14.72;95.44;100730.09;4954483;28;20496;-79
2021/09/09 06:54:51;;;;;;;1.42;1.30;;;;;;;14.96;91.82;100730.66;4963498;28;20071;-77
2021/09/09 06:57:24;;;;;;;1.50;1.40;;;;;;;15.04;91.33;100731.88;4970726;28;20066;-80
2021/09/09 06:59:57;;;;;;;1.42;1.33;;;;;;;15.15;91.32;100726.97;4964843;28;20062;-79
2021/09/09 07:02:31;;;;;;;1.40;1.27;;;;;;;14.97;91.23;100734.22;4949976;28;20503;-79
2021/09/09 07:05:07;;;;;;;2.00;1.35;;;;;;;14.91;92.63;100738.97;4948589;29;20048;-78
2021/09/09 07:07:45;;;;;;;1.40;1.30;;;;;;;15.10;91.24;100730.63;4936392;29;20058;-80
2021/09/09 07:10:13;;;;;;;1.55;1.45;;;;;;;15.23;90.36;100741.84;4945474;29;20051;-80
2021/09/09 07:12:52;;;;;;;1.50;1.40;;;;;;;15.00;92.70;100732.78;4937219;29;20808;-80
2021/09/09 07:15:22;;;;;;;1.80;1.50;;;;;;;15.17;91.43;100727.44;4934172;29;20067;-79
2021/09/09 07:17:57;;;;;;;1.88;1.40;;;;;;;15.19;91.57;100736.19;4935361;29;20055;-78
2021/09/09 07:20:30;;;;;;;1.50;1.30;;;;;;;15.32;91.03;100726.28;4933318;28;20063;-80
2021/09/09 07:23:03;;;;;;;1.92;1.63;;;;;;;15.42;91.20;100733.47;4933415;29;20050;-78
2021/09/09 07:25:36;;;;;;;1.45;1.20;;;;;;;15.54;90.79;100732.91;4940328;29;20068;-81
2021/09/09 07:28:11;;;;;;;2.25;1.30;;;;;;;15.49;91.02;100733.81;4939132;29;20058;-80
2021/09/09 07:30:51;;;;;;;1.40;1.30;;;;;;;15.53;91.07;100736.78;4939417;29;20059;-80
2021/09/09 07:33:26;;;;;;;1.40;1.30;;;;;;;15.66;90.65;100733.16;4941259;28;20071;-81
2021/09/09 07:35:54;;;;;;;1.40;1.30;;;;;;;15.71;90.13;100735.75;4934876;29;20420;-79
2021/09/09 07:38:27;;;;;;;1.50;1.20;;;;;;;15.62;88.68;100732.16;4937211;29;20066;-81
2021/09/09 07:41:00;;;;;;;1.42;1.20;;;;;;;15.62;89.82;100727.47;4935506;29;20051;-79
2021/09/09 07:43:36;;;;;;;1.83;1.20;;;;;;;15.69;90.89;100732.53;4934781;29;20070;-79
2021/09/09 07:46:09;;;;;;;1.30;1.20;;;;;;;15.80;89.72;100728.41;4934518;29;20058;-81
2021/09/09 07:48:44;;;;;;;1.60;1.15;;;;;;;15.86;89.33;100728.28;4936545;29;20097;-82
2021/09/09 07:51:18;;;;;;;3.95;1.48;;;;;;;15.86;89.24;100723.59;4935887;29;20070;-83
2021/09/09 07:53:47;;;;;;;1.67;1.27;;;;;;;15.98;87.87;100726.56;4934546;29;20056;-79
2021/09/09 07:56:20;;;;;;;2.00;1.20;;;;;;;16.03;89.30;100722.06;4932919;29;20062;-80
2021/09/09 07:58:58;;;;;;;1.55;1.27;;;;;;;16.08;89.21;100735.66;4936230;28;20067;-83
2021/09/09 08:01:51;;;;;;;1.13;1.10;;;;;;;16.31;87.47;100728.19;4937767;29;20059;-81
2021/09/09 08:04:23;;;;;;;1.55;1.13;;;;;;;16.36;88.62;100729.97;4934121;29;20058;-82
2021/09/09 08:06:56;;;;;;;1.20;1.00;;;;;;;16.28;87.49;100729.63;4933770;29;20813;-79
2021/09/09 08:09:36;;;;;;;1.40;1.27;;;;;;;16.71;85.44;100728.13;4931553;29;20423;-82
2021/09/09 08:12:10;;;;;;;1.20;1.10;;;;;;;17.13;82.13;100725.78;4932126;29;20075;-80
2021/09/09 08:14:43;;;;;;;1.27;1.17;;;;;;;17.32;80.81;100714.44;4933872;28;20059;-80
2021/09/09 08:17:16;;;;;;;1.92;1.20;;;;;;;17.34;82.88;100723.19;4937876;29;20126;-82
2021/09/09 08:20:06;;;;;;;1.45;1.13;;;;;;;17.42;81.45;100727.06;4934701;29;21347;-79
2021/09/09 08:22:40;;;;;;;1.20;1.08;;;;;;;17.55;79.21;100725.25;4933207;29;20050;-81
2021/09/09 08:25:13;;;;;;;1.58;1.20;;;;;;;17.49;83.34;100721.88;4937089;29;20792;-79
2021/09/09 08:27:47;;;;;;;1.27;1.10;;;;;;;17.73;79.61;100728.81;4931198;29;20512;-80
2021/09/09 08:30:20;;;;;;;2.90;1.05;;;;;;;17.73;80.12;100720.56;4932743;29;20047;-78
2021/09/09 08:32:54;;;;;;;1.10;1.00;;;;;;;17.67;81.49;100716.34;4933734;29;20064;-80
2021/09/09 08:35:28;;;;;;;1.23;1.00;;;;;;;18.10;78.56;100718.16;4934437;29;20499;-83
2021/09/09 08:38:27;;;;;;;2.10;1.00;;;;;;;17.92;79.64;100722.13;4933428;29;20050;-80
2021/09/09 08:41:02;;;;;;;1.20;1.00;;;;;;;17.76;81.51;100717.13;4949484;28;20064;-81
2021/09/09 08:43:37;;;;;;;1.08;1.00;;;;;;;17.93;80.78;100718.25;4933115;29;20062;-80
2021/09/09 08:46:11;;;;;;;1.95;0.93;;;;;;;18.33;77.84;100718.72;4932576;29;20066;-81
2021/09/09 08:48:45;;;;;;;1.20;1.10;;;;;;;18.46;76.23;100711.38;4931596;29;20044;-80
2021/09/09 08:51:22;;;;;;;1.33;1.10;;;;;;;18.29;78.71;100714.22;4934181;29;20062;-81
2021/09/09 08:53:57;;;;;;;1.83;1.00;;;;;;;18.55;76.96;100716.84;4937183;29;20058;-77
2021/09/09 08:56:31;;;;;;;0.80;0.80;;;;;;;18.43;77.42;100717.53;4935923;29;20062;-79
2021/09/09 08:59:08;;;;;;;1.15;0.88;;;;;;;18.56;77.34;100712.13;4936372;29;20055;-82
2021/09/09 09:02:00;;;;;;;1.00;0.90;;;;;;;18.62;76.53;100716.31;4931658;28;20051;-83
2021/09/09 09:04:39;;;;;;;1.20;0.90;;;;;;;18.57;77.62;100711.78;4933923;29;20063;-81
2021/09/09 09:07:09;;;;;;;0.93;0.93;;;;;;;18.59;77.46;100712.28;4938952;28;20059;-78
2021/09/09 09:09:42;;;;;;;1.00;0.85;;;;;;;18.62;77.79;100716.31;4929670;29;20067;-80
2021/09/09 09:12:15;;;;;;;1.25;0.88;;;;;;;18.50;78.22;100703.25;4932311;29;20044;-79
2021/09/09 09:14:49;;;;;;;1.52;1.00;;;;;;;18.58;76.50;100713.41;4932301;29;20066;-79
2021/09/09 09:17:22;;;;;;;0.80;0.80;;;;;;;18.61;76.99;100707.22;4939491;28;20059;-80
2021/09/09 09:19:56;;;;;;;0.80;0.73;;;;;;;18.75;73.38;100708.94;4922048;29;20514;-82
2021/09/09 09:22:32;;;;;;;1.38;0.85;;;;;;;19.14;66.12;100706.88;4921494;29;20546;-83
2021/09/09 09:25:00;;;;;;;2.17;0.73;;;;;;;18.93;72.75;100698.63;4931441;29;20058;-82
2021/09/09 09:27:34;;;;;;;1.67;0.90;;;;;;;19.05;73.70;100693.16;4933540;29;20047;-82
2021/09/09 09:30:09;;;;;;;2.05;0.80;;;;;;;19.12;70.88;100693.41;4933395;29;20082;-82
2021/09/09 09:32:47;;;;;;;0.93;0.80;;;;;;;19.09;71.22;100699.63;4935766;29;20063;-81
2021/09/09 09:35:48;;;;;;;1.67;0.90;;;;;;;19.16;71.81;100682.53;4934718;29;20047;-81
2021/09/09 09:38:23;;;;;;;1.48;0.88;;;;;;;19.15;73.21;100676.19;4937395;29;20071;-79
2021/09/09 09:40:56;;;;;;;0.70;0.70;;;;;;;19.29;70.18;100675.94;4936932;29;20051;-80
2021/09/09 09:43:29;;;;;;;1.02;0.70;;;;;;;19.75;64.14;100677.88;4944970;28;20075;-82
2021/09/09 09:46:05;;;;;;;0.80;0.80;;;;;;;19.71;67.81;100675.00;4934510;29;20060;-81
2021/09/09 09:48:34;;;;;;;0.68;0.68;;;;;;;19.69;69.44;100672.59;4937010;29;20052;-79
2021/09/09 09:51:03;;;;;;;0.60;0.60;;;;;;;19.69;69.52;100680.03;4938149;29;20056;-81
2021/09/09 09:53:32;;;;;;;0.80;0.80;;;;;;;19.68;69.13;100676.50;4931056;29;20058;-80
2021/09/09 09:56:05;;;;;;;0.80;0.80;;;;;;;19.70;69.84;100674.19;4933604;29;20063;-82
2021/09/09 09:58:39;;;;;;;0.70;0.70;;;;;;;19.71;69.45;100667.50;4933375;28;20039;-83
2021/09/09 10:01:07;;;;;;;0.80;0.70;;;;;;;19.99;63.26;100660.56;4932504;28;20059;-81
2021/09/09 10:03:41;;;;;;;1.90;0.73;;;;;;;19.94;65.78;100669.91;4933041;29;20032;-81
2021/09/09 10:06:09;;;;;;;1.23;0.77;;;;;;;19.94;63.80;100658.03;4934282;29;20056;-82
2021/09/09 10:08:47;;;;;;;0.50;0.50;;;;;;;20.19;64.49;100665.19;4930566;29;20055;-79
2021/09/09 10:11:20;;;;;;;0.68;0.65;;;;;;;20.26;61.26;100658.25;4932960;29;20051;-79
2021/09/09 10:13:54;;;;;;;0.60;0.60;;;;;;;20.42;66.47;100663.91;4933144;28;20070;-80
2021/09/09 10:16:29;;;;;;;1.02;0.55;;;;;;;20.31;67.33;100650.53;4934801;29;20070;-81
2021/09/09 10:19:04;;;;;;;0.68;0.60;;;;;;;20.35;66.06;100656.97;4931594;29;20088;-81
2021/09/09 10:21:42;;;;;;;0.85;0.80;;;;;;;20.37;65.68;100648.34;4934484;29;20062;-80
2021/09/09 10:24:18;;;;;;;3.42;1.00;;;;;;;20.53;66.47;100649.22;4949521;28;20067;-81
2021/09/09 10:26:48;;;;;;;0.82;0.75;;;;;;;21.03;61.37;100646.34;4932076;29;20060;-81
2021/09/09 10:29:47;;;;;;;1.08;0.80;;;;;;;20.68;63.52;100644.19;4933864;29;20048;-79
2021/09/09 10:32:50;;;;;;;0.60;0.60;;;;;;;21.03;59.74;100644.41;4934932;29;20073;-82
2021/09/09 10:35:40;;;;;;;1.00;0.70;;;;;;;20.73;63.05;100628.13;4931229;29;20071;-81
2021/09/09 10:38:32;;;;;;;0.85;0.70;;;;;;;21.26;59.08;100635.53;4919694;29;20090;-82
2021/09/09 10:41:07;;;;;;;0.85;0.60;;;;;;;21.09;64.31;100633.91;4931864;29;20059;-80
2021/09/09 10:43:50;;;;;;;0.70;0.70;;;;;;;21.27;61.61;100628.03;4935958;29;20058;-83
2021/09/09 10:46:30;;;;;;;5.30;0.70;;;;;;;21.43;58.40;100628.06;4930865;28;20062;-79
2021/09/09 10:49:10;;;;;;;1.77;0.60;;;;;;;21.41;58.42;100631.97;4935167;29;20044;-80
2021/09/09 10:52:08;;;;;;;0.50;0.50;;;;;;;21.26;61.01;100627.22;4932092;29;21157;-79
2021/09/09 10:55:10;;;;;;;0.95;0.65;;;;;;;21.37;62.68;100625.56;4933800;29;20058;-78
2021/09/09 10:57:45;;;;;;;0.93;0.68;;;;;;;21.41;60.19;100622.88;4937582;28;20059;-84
2021/09/09 11:00:16;;;;;;;1.02;0.60;;;;;;;21.30;62.14;100622.59;4934861;29;20051;-78
2021/09/09 11:02:49;;;;;;;0.95;0.50;;;;;;;21.13;61.89;100629.25;4932800;29;20144;-82
2021/09/09 11:05:22;;;;;;;1.15;0.63;;;;;;;21.20;63.25;100628.66;4934459;28;20062;-79
2021/09/09 11:07:51;;;;;;;0.70;0.70;;;;;;;21.29;61.10;100622.94;4935988;29;20048;-79
2021/09/09 11:10:39;;;;;;;0.60;0.60;;;;;;;21.53;55.66;100620.06;4933961;29;20051;-79
2021/09/09 11:13:25;;;;;;;1.00;0.50;;;;;;;21.51;58.69;100614.03;4939217;29;20571;-79
2021/09/09 11:15:58;;;;;;;0.98;0.75;;;;;;;21.61;58.40;100614.72;4937072;29;20062;-81
2021/09/09 11:18:33;;;;;;;1.15;0.60;;;;;;;21.72;60.03;100610.25;4951903;28;20056;-80
2021/09/09 11:21:08;;;;;;;0.60;0.60;;;;;;;21.71;58.70;100609.44;4934773;29;20663;-82
2021/09/09 11:23:41;;;;;;;1.85;0.50;;;;;;;21.69;59.02;100606.22;4936674;29;20055;-81
2021/09/09 11:26:16;;;;;;;0.40;0.40;;;;;;;21.62;59.80;100608.81;4935240;29;20055;-81
2021/09/09 11:28:51;;;;;;;0.50;0.50;;;;;;;21.74;59.04;100602.41;4936013;28;20059;-81
2021/09/09 11:31:26;;;;;;;1.08;0.57;;;;;;;21.87;58.20;100603.88;4935606;29;20051;-81
2021/09/09 11:34:01;;;;;;;0.55;0.55;;;;;;;21.89;55.01;100598.00;4937198;29;20059;-81
2021/09/09 11:36:32;;;;;;;0.60;0.50;;;;;;;21.92;55.86;100600.06;4937369;29;20621;-80
2021/09/09 11:39:07;;;;;;;1.27;0.53;;;;;;;21.96;54.44;100587.09;4948970;28;21504;-83
2021/09/09 11:41:41;;;;;;;0.52;0.50;;;;;;;22.08;57.37;100589.75;4942186;28;20421;-82
2021/09/09 11:44:27;;;;;;;0.98;0.57;;;;;;;22.13;57.11;100593.41;4930871;29;20051;-84
2021/09/09 11:47:11;;;;;;;1.10;0.60;;;;;;;22.03;56.77;100592.78;4928947;29;20064;-79
2021/09/09 11:49:47;;;;;;;0.50;0.50;;;;;;;22.05;55.00;100589.66;4945120;28;20043;-80
2021/09/09 11:52:20;;;;;;;0.50;0.50;;;;;;;22.07;57.83;100601.19;4928519;29;20070;-84
2021/09/09 11:54:53;;;;;;;0.50;0.50;;;;;;;22.06;58.26;100588.50;4923861;29;20097;-81
2021/09/09 11:57:27;;;;;;;0.90;0.60;;;;;;;22.35;53.75;100580.84;4924740;29;20067;-81